sensor_id;sensor_type;location;lat;lon;timestamp;temperature;humidity
9943;DHT22;5010;45.080;7.634;2023-04-25T00:02:21;21.50;1.00
9943;DHT22;5010;45.080;7.634;2023-04-25T00:04:49;21.50;1.00
9943;DHT22;5010;45.080;7.634;2023-04-25T00:07:17;21.50;1.00
9943;DHT22;5010;45.080;7.634;2023-04-25T00:09:45;21.50;1.00
9943;DHT22;5010;45.080;7.634;2023-04-25T00:12:12;21.50;1.00
9943;DHT22;5010;45.080;7.634;2023-04-25T00:14:39;21.50;1.00
9943;DHT22;5010;45.080;7.634;2023-04-25T00:17:05;21.50;1.00
9943;DHT22;5010;45.080;7.634;2023-04-25T00:19:32;21.50;1.00
9943;DHT22;5010;45.080;7.634;2023-04-25T00:22:02;21.50;1.00
9943;DHT22;5010;45.080;7.634;2023-04-25T00:24:29;21.40;1.00
9943;DHT22;5010;45.080;7.634;2023-04-25T00:26:56;21.50;1.00
9943;DHT22;5010;45.080;7.634;2023-04-25T00:29:22;21.40;1.00
9943;DHT22;5010;45.080;7.634;2023-04-25T00:31:49;21.40;1.00
9943;DHT22;5010;45.080;7.634;2023-04-25T00:34:16;21.40;1.00
9943;DHT22;5010;45.080;7.634;2023-04-25T00:36:43;21.40;1.00
9943;DHT22;5010;45.080;7.634;2023-04-25T00:39:11;21.40;1.00
9943;DHT22;5010;45.080;7.634;2023-04-25T00:41:38;21.40;1.00
9943;DHT22;5010;45.080;7.634;2023-04-25T00:44:08;21.40;1.00
9943;DHT22;5010;45.080;7.634;2023-04-25T00:46:36;21.40;1.00
9943;DHT22;5010;45.080;7.634;2023-04-25T00:49:03;21.40;1.00
9943;DHT22;5010;45.080;7.634;2023-04-25T00:51:31;21.40;1.00
9943;DHT22;5010;45.080;7.634;2023-04-25T00:53:59;21.40;1.00
9943;DHT22;5010;45.080;7.634;2023-04-25T00:56:28;21.40;1.00
9943;DHT22;5010;45.080;7.634;2023-04-25T00:58:55;21.40;1.00
9943;DHT22;5010;45.080;7.634;2023-04-25T01:01:22;21.40;1.00
9943;DHT22;5010;45.080;7.634;2023-04-25T01:03:50;21.40;1.00
9943;DHT22;5010;45.080;7.634;2023-04-25T01:06:18;21.40;1.00
9943;DHT22;5010;45.080;7.634;2023-04-25T01:08:45;21.40;1.00
9943;DHT22;5010;45.080;7.634;2023-04-25T01:11:12;21.40;1.00
9943;DHT22;5010;45.080;7.634;2023-04-25T01:13:40;21.40;1.00
9943;DHT22;5010;45.080;7.634;2023-04-25T01:16:07;21.40;1.00
9943;DHT22;5010;45.080;7.634;2023-04-25T01:18:34;21.40;1.00
9943;DHT22;5010;45.080;7.634;2023-04-25T01:21:07;21.40;1.00
9943;DHT22;5010;45.080;7.634;2023-04-25T01:23:35;21.30;1.00
9943;DHT22;5010;45.080;7.634;2023-04-25T01:26:03;21.30;1.00
9943;DHT22;5010;45.080;7.634;2023-04-25T01:28:30;21.30;1.00
9943;DHT22;5010;45.080;7.634;2023-04-25T01:30:58;21.30;1.00
9943;DHT22;5010;45.080;7.634;2023-04-25T01:33:25;21.30;1.00
9943;DHT22;5010;45.080;7.634;2023-04-25T01:35:52;21.30;1.00
9943;DHT22;5010;45.080;7.634;2023-04-25T01:38:20;21.30;1.00
9943;DHT22;5010;45.080;7.634;2023-04-25T01:40:49;21.30;1.00
9943;DHT22;5010;45.080;7.634;2023-04-25T01:43:17;21.30;1.00
9943;DHT22;5010;45.080;7.634;2023-04-25T01:45:44;21.30;1.00
9943;DHT22;5010;45.080;7.634;2023-04-25T01:48:13;21.30;1.00
9943;DHT22;5010;45.080;7.634;2023-04-25T01:50:41;21.30;1.00
9943;DHT22;5010;45.080;7.634;2023-04-25T01:53:09;21.30;1.00
9943;DHT22;5010;45.080;7.634;2023-04-25T01:55:38;21.30;1.00
9943;DHT22;5010;45.080;7.634;2023-04-25T01:58:05;21.30;1.00
9943;DHT22;5010;45.080;7.634;2023-04-25T02:00:35;21.30;1.00
9943;DHT22;5010;45.080;7.634;2023-04-25T02:03:03;21.30;1.00
9943;DHT22;5010;45.080;7.634;2023-04-25T02:05:34;21.30;1.00
9943;DHT22;5010;45.080;7.634;2023-04-25T02:08:02;21.30;1.00
9943;DHT22;5010;45.080;7.634;2023-04-25T02:10:30;21.30;1.00
9943;DHT22;5010;45.080;7.634;2023-04-25T02:12:58;21.30;1.00
9943;DHT22;5010;45.080;7.634;2023-04-25T02:15:25;21.30;1.00
9943;DHT22;5010;45.080;7.634;2023-04-25T02:17:52;21.30;1.00
9943;DHT22;5010;45.080;7.634;2023-04-25T02:20:21;21.30;1.00
9943;DHT22;5010;45.080;7.634;2023-04-25T02:22:48;21.30;1.00
9943;DHT22;5010;45.080;7.634;2023-04-25T02:25:16;21.20;1.00
9943;DHT22;5010;45.080;7.634;2023-04-25T02:27:43;21.30;1.00
9943;DHT22;5010;45.080;7.634;2023-04-25T02:30:12;21.30;1.00
9943;DHT22;5010;45.080;7.634;2023-04-25T02:32:40;21.30;1.00
9943;DHT22;5010;45.080;7.634;2023-04-25T02:35:07;21.20;1.00
9943;DHT22;5010;45.080;7.634;2023-04-25T02:37:35;21.20;1.00
9943;DHT22;5010;45.080;7.634;2023-04-25T02:40:03;21.20;1.00
9943;DHT22;5010;45.080;7.634;2023-04-25T02:42:30;21.20;1.00
9943;DHT22;5010;45.080;7.634;2023-04-25T02:44:57;21.20;1.00
9943;DHT22;5010;45.080;7.634;2023-04-25T02:47:25;21.20;1.00
9943;DHT22;5010;45.080;7.634;2023-04-25T02:49:52;21.20;1.00
9943;DHT22;5010;45.080;7.634;2023-04-25T02:52:19;21.20;1.00
9943;DHT22;5010;45.080;7.634;2023-04-25T02:54:46;21.20;1.00
9943;DHT22;5010;45.080;7.634;2023-04-25T02:57:13;21.20;1.00
9943;DHT22;5010;45.080;7.634;2023-04-25T02:59:40;21.20;1.00
9943;DHT22;5010;45.080;7.634;2023-04-25T03:02:07;21.20;1.00
9943;DHT22;5010;45.080;7.634;2023-04-25T03:04:35;21.20;1.00
9943;DHT22;5010;45.080;7.634;2023-04-25T03:07:02;21.20;1.00
9943;DHT22;5010;45.080;7.634;2023-04-25T03:09:29;21.20;1.00
9943;DHT22;5010;45.080;7.634;2023-04-25T03:11:56;21.20;1.00
9943;DHT22;5010;45.080;7.634;2023-04-25T03:14:23;21.20;1.00
9943;DHT22;5010;45.080;7.634;2023-04-25T03:16:49;21.20;1.00
9943;DHT22;5010;45.080;7.634;2023-04-25T03:19:16;21.20;1.00
9943;DHT22;5010;45.080;7.634;2023-04-25T03:21:45;21.20;1.00
9943;DHT22;5010;45.080;7.634;2023-04-25T03:24:12;21.20;1.00
9943;DHT22;5010;45.080;7.634;2023-04-25T03:26:39;21.20;1.00
9943;DHT22;5010;45.080;7.634;2023-04-25T03:29:06;21.20;1.00
9943;DHT22;5010;45.080;7.634;2023-04-25T03:31:33;21.20;1.00
9943;DHT22;5010;45.080;7.634;2023-04-25T03:33:59;21.20;1.00
9943;DHT22;5010;45.080;7.634;2023-04-25T03:36:26;21.20;1.00
9943;DHT22;5010;45.080;7.634;2023-04-25T03:38:55;21.20;1.00
9943;DHT22;5010;45.080;7.634;2023-04-25T03:41:21;21.20;1.00
9943;DHT22;5010;45.080;7.634;2023-04-25T03:43:48;21.20;1.00
9943;DHT22;5010;45.080;7.634;2023-04-25T03:46:15;21.20;1.00
9943;DHT22;5010;45.080;7.634;2023-04-25T03:48:42;21.20;1.00
9943;DHT22;5010;45.080;7.634;2023-04-25T03:51:09;21.20;1.00
9943;DHT22;5010;45.080;7.634;2023-04-25T03:53:36;21.20;1.00
9943;DHT22;5010;45.080;7.634;2023-04-25T03:56:05;21.10;1.00
9943;DHT22;5010;45.080;7.634;2023-04-25T03:58:31;21.10;1.00
9943;DHT22;5010;45.080;7.634;2023-04-25T04:00:58;21.10;1.00
9943;DHT22;5010;45.080;7.634;2023-04-25T04:03:25;21.10;1.00
9943;DHT22;5010;45.080;7.634;2023-04-25T04:05:52;21.10;1.00
9943;DHT22;5010;45.080;7.634;2023-04-25T04:08:19;21.10;1.00
9943;DHT22;5010;45.080;7.634;2023-04-25T04:10:46;21.10;1.00
9943;DHT22;5010;45.080;7.634;2023-04-25T04:13:14;21.10;1.00
9943;DHT22;5010;45.080;7.634;2023-04-25T04:15:41;21.10;1.00
9943;DHT22;5010;45.080;7.634;2023-04-25T04:18:08;21.10;1.00
9943;DHT22;5010;45.080;7.634;2023-04-25T04:20:35;21.10;1.00
9943;DHT22;5010;45.080;7.634;2023-04-25T04:23:02;21.10;1.00
9943;DHT22;5010;45.080;7.634;2023-04-25T04:25:30;21.10;1.00
9943;DHT22;5010;45.080;7.634;2023-04-25T04:27:57;21.10;1.00
9943;DHT22;5010;45.080;7.634;2023-04-25T04:30:27;21.10;1.00
9943;DHT22;5010;45.080;7.634;2023-04-25T04:32:56;21.10;1.00
9943;DHT22;5010;45.080;7.634;2023-04-25T04:35:24;21.10;1.00
9943;DHT22;5010;45.080;7.634;2023-04-25T04:37:51;21.10;1.00
9943;DHT22;5010;45.080;7.634;2023-04-25T04:40:19;21.10;1.00
9943;DHT22;5010;45.080;7.634;2023-04-25T04:42:46;21.10;1.00
9943;DHT22;5010;45.080;7.634;2023-04-25T04:45:13;21.10;1.00
9943;DHT22;5010;45.080;7.634;2023-04-25T04:47:43;21.10;1.00
9943;DHT22;5010;45.080;7.634;2023-04-25T04:50:11;21.10;1.00
9943;DHT22;5010;45.080;7.634;2023-04-25T04:52:38;21.10;1.00
9943;DHT22;5010;45.080;7.634;2023-04-25T04:55:06;21.10;1.00
9943;DHT22;5010;45.080;7.634;2023-04-25T04:57:33;21.10;1.00
9943;DHT22;5010;45.080;7.634;2023-04-25T05:00:01;21.10;1.00
9943;DHT22;5010;45.080;7.634;2023-04-25T05:02:28;21.10;1.00
9943;DHT22;5010;45.080;7.634;2023-04-25T05:04:56;21.10;1.00
9943;DHT22;5010;45.080;7.634;2023-04-25T05:07:23;21.10;1.00
9943;DHT22;5010;45.080;7.634;2023-04-25T05:09:50;21.10;1.00
9943;DHT22;5010;45.080;7.634;2023-04-25T05:12:17;21.10;1.00
9943;DHT22;5010;45.080;7.634;2023-04-25T05:14:44;21.10;1.00
9943;DHT22;5010;45.080;7.634;2023-04-25T05:17:11;21.10;1.00
9943;DHT22;5010;45.080;7.634;2023-04-25T05:19:39;21.10;1.00
9943;DHT22;5010;45.080;7.634;2023-04-25T05:22:07;21.10;1.00
9943;DHT22;5010;45.080;7.634;2023-04-25T05:24:35;21.10;1.00
9943;DHT22;5010;45.080;7.634;2023-04-25T05:27:02;21.10;1.00
9943;DHT22;5010;45.080;7.634;2023-04-25T05:29:29;21.10;1.00
9943;DHT22;5010;45.080;7.634;2023-04-25T05:31:56;21.10;1.00
9943;DHT22;5010;45.080;7.634;2023-04-25T05:34:24;21.10;1.00
9943;DHT22;5010;45.080;7.634;2023-04-25T05:36:51;21.10;1.00
9943;DHT22;5010;45.080;7.634;2023-04-25T05:39:19;21.10;1.00
9943;DHT22;5010;45.080;7.634;2023-04-25T05:41:46;21.10;1.00
9943;DHT22;5010;45.080;7.634;2023-04-25T05:44:13;21.10;1.00
9943;DHT22;5010;45.080;7.634;2023-04-25T05:46:41;21.10;1.00
9943;DHT22;5010;45.080;7.634;2023-04-25T05:49:08;21.10;1.00
9943;DHT22;5010;45.080;7.634;2023-04-25T05:51:35;21.10;1.00
9943;DHT22;5010;45.080;7.634;2023-04-25T05:54:02;21.10;1.00
9943;DHT22;5010;45.080;7.634;2023-04-25T05:56:30;21.10;1.00
9943;DHT22;5010;45.080;7.634;2023-04-25T05:58:57;21.10;1.00
9943;DHT22;5010;45.080;7.634;2023-04-25T06:01:24;21.10;1.00
9943;DHT22;5010;45.080;7.634;2023-04-25T06:03:51;21.10;1.00
9943;DHT22;5010;45.080;7.634;2023-04-25T06:06:19;21.10;1.00
9943;DHT22;5010;45.080;7.634;2023-04-25T06:08:45;21.10;1.00
9943;DHT22;5010;45.080;7.634;2023-04-25T06:11:12;21.10;1.00
9943;DHT22;5010;45.080;7.634;2023-04-25T06:13:41;21.10;1.00
9943;DHT22;5010;45.080;7.634;2023-04-25T06:16:08;21.10;1.00
9943;DHT22;5010;45.080;7.634;2023-04-25T06:18:38;21.10;1.00
9943;DHT22;5010;45.080;7.634;2023-04-25T06:21:05;21.10;1.00
9943;DHT22;5010;45.080;7.634;2023-04-25T06:23:32;21.10;1.00
9943;DHT22;5010;45.080;7.634;2023-04-25T06:25:58;21.10;1.00
9943;DHT22;5010;45.080;7.634;2023-04-25T06:28:26;21.10;1.00
9943;DHT22;5010;45.080;7.634;2023-04-25T06:30:54;21.10;1.00
9943;DHT22;5010;45.080;7.634;2023-04-25T06:33:21;21.10;1.00
9943;DHT22;5010;45.080;7.634;2023-04-25T06:35:49;21.10;1.00
9943;DHT22;5010;45.080;7.634;2023-04-25T06:38:16;21.10;1.00
9943;DHT22;5010;45.080;7.634;2023-04-25T06:40:43;21.10;1.00
9943;DHT22;5010;45.080;7.634;2023-04-25T06:43:10;21.10;1.00
9943;DHT22;5010;45.080;7.634;2023-04-25T06:45:37;21.10;1.00
9943;DHT22;5010;45.080;7.634;2023-04-25T06:48:05;21.10;1.00
9943;DHT22;5010;45.080;7.634;2023-04-25T06:50:33;21.20;1.00
9943;DHT22;5010;45.080;7.634;2023-04-25T06:53:00;21.20;1.00
9943;DHT22;5010;45.080;7.634;2023-04-25T06:55:28;21.20;1.00
9943;DHT22;5010;45.080;7.634;2023-04-25T06:57:55;21.20;1.00
9943;DHT22;5010;45.080;7.634;2023-04-25T07:00:22;21.20;1.00
9943;DHT22;5010;45.080;7.634;2023-04-25T07:02:49;21.20;1.00
9943;DHT22;5010;45.080;7.634;2023-04-25T07:05:17;21.20;1.00
9943;DHT22;5010;45.080;7.634;2023-04-25T07:07:44;21.20;1.00
9943;DHT22;5010;45.080;7.634;2023-04-25T07:10:11;21.20;1.00
9943;DHT22;5010;45.080;7.634;2023-04-25T07:12:38;21.30;1.00
9943;DHT22;5010;45.080;7.634;2023-04-25T07:15:06;21.30;1.00
9943;DHT22;5010;45.080;7.634;2023-04-25T07:17:35;21.30;1.00
9943;DHT22;5010;45.080;7.634;2023-04-25T07:20:06;21.30;1.00
9943;DHT22;5010;45.080;7.634;2023-04-25T07:22:36;21.30;1.00
9943;DHT22;5010;45.080;7.634;2023-04-25T07:25:03;21.30;1.00
9943;DHT22;5010;45.080;7.634;2023-04-25T07:27:31;21.30;1.00
9943;DHT22;5010;45.080;7.634;2023-04-25T07:29:58;21.30;1.00
9943;DHT22;5010;45.080;7.634;2023-04-25T07:32:26;21.40;1.00
9943;DHT22;5010;45.080;7.634;2023-04-25T07:34:53;21.40;1.00
9943;DHT22;5010;45.080;7.634;2023-04-25T07:37:20;21.40;1.00
9943;DHT22;5010;45.080;7.634;2023-04-25T07:39:48;21.40;1.00
9943;DHT22;5010;45.080;7.634;2023-04-25T07:42:15;21.40;1.00
9943;DHT22;5010;45.080;7.634;2023-04-25T07:44:42;21.40;1.00
9943;DHT22;5010;45.080;7.634;2023-04-25T07:47:09;21.40;1.00
9943;DHT22;5010;45.080;7.634;2023-04-25T07:49:37;21.40;1.00
9943;DHT22;5010;45.080;7.634;2023-04-25T07:52:05;21.40;1.00
9943;DHT22;5010;45.080;7.634;2023-04-25T07:54:32;21.40;1.00
9943;DHT22;5010;45.080;7.634;2023-04-25T07:57:00;21.40;1.00
9943;DHT22;5010;45.080;7.634;2023-04-25T07:59:28;21.40;1.00
9943;DHT22;5010;45.080;7.634;2023-04-25T08:01:55;21.40;1.00
9943;DHT22;5010;45.080;7.634;2023-04-25T08:04:22;21.40;1.00
9943;DHT22;5010;45.080;7.634;2023-04-25T08:06:50;21.40;1.00
9943;DHT22;5010;45.080;7.634;2023-04-25T08:09:18;21.40;1.00
9943;DHT22;5010;45.080;7.634;2023-04-25T08:11:45;21.40;1.00
9943;DHT22;5010;45.080;7.634;2023-04-25T08:14:13;21.40;1.00
9943;DHT22;5010;45.080;7.634;2023-04-25T08:16:40;21.40;1.00
9943;DHT22;5010;45.080;7.634;2023-04-25T08:19:07;21.40;1.00
9943;DHT22;5010;45.080;7.634;2023-04-25T08:21:34;21.40;1.00
9943;DHT22;5010;45.080;7.634;2023-04-25T08:24:01;21.40;1.00
9943;DHT22;5010;45.080;7.634;2023-04-25T08:26:28;21.40;1.00
9943;DHT22;5010;45.080;7.634;2023-04-25T08:28:55;21.40;1.00
9943;DHT22;5010;45.080;7.634;2023-04-25T08:31:23;21.40;1.00
9943;DHT22;5010;45.080;7.634;2023-04-25T08:33:50;21.40;1.00
9943;DHT22;5010;45.080;7.634;2023-04-25T08:36:17;21.40;1.00
9943;DHT22;5010;45.080;7.634;2023-04-25T08:38:45;21.40;1.00
9943;DHT22;5010;45.080;7.634;2023-04-25T08:41:13;21.40;1.00
9943;DHT22;5010;45.080;7.634;2023-04-25T08:43:42;21.40;1.00
9943;DHT22;5010;45.080;7.634;2023-04-25T08:46:09;21.40;1.00
9943;DHT22;5010;45.080;7.634;2023-04-25T08:48:40;21.40;1.00
9943;DHT22;5010;45.080;7.634;2023-04-25T08:51:10;21.40;1.00
9943;DHT22;5010;45.080;7.634;2023-04-25T08:53:43;21.40;1.00
9943;DHT22;5010;45.080;7.634;2023-04-25T08:56:12;21.40;1.00
9943;DHT22;5010;45.080;7.634;2023-04-25T08:58:43;21.40;1.00
9943;DHT22;5010;45.080;7.634;2023-04-25T09:01:11;21.40;1.00
9943;DHT22;5010;45.080;7.634;2023-04-25T09:03:39;21.40;1.00
9943;DHT22;5010;45.080;7.634;2023-04-25T09:06:07;21.40;1.00
9943;DHT22;5010;45.080;7.634;2023-04-25T09:08:36;21.40;1.00
9943;DHT22;5010;45.080;7.634;2023-04-25T09:11:03;21.40;1.00
9943;DHT22;5010;45.080;7.634;2023-04-25T09:13:30;21.40;1.00
9943;DHT22;5010;45.080;7.634;2023-04-25T09:15:58;21.40;1.00
9943;DHT22;5010;45.080;7.634;2023-04-25T09:18:26;21.40;1.00
9943;DHT22;5010;45.080;7.634;2023-04-25T09:20:56;21.40;1.00
9943;DHT22;5010;45.080;7.634;2023-04-25T09:23:23;21.40;1.00
9943;DHT22;5010;45.080;7.634;2023-04-25T09:25:51;21.40;1.00
9943;DHT22;5010;45.080;7.634;2023-04-25T09:28:23;21.40;1.00
9943;DHT22;5010;45.080;7.634;2023-04-25T09:30:55;21.40;1.00
9943;DHT22;5010;45.080;7.634;2023-04-25T09:33:27;21.40;1.00
9943;DHT22;5010;45.080;7.634;2023-04-25T09:36:02;21.40;1.00
9943;DHT22;5010;45.080;7.634;2023-04-25T09:38:30;21.40;1.00
9943;DHT22;5010;45.080;7.634;2023-04-25T09:40:58;21.40;1.00
9943;DHT22;5010;45.080;7.634;2023-04-25T09:43:26;21.40;1.00
9943;DHT22;5010;45.080;7.634;2023-04-25T09:45:54;21.40;1.00
9943;DHT22;5010;45.080;7.634;2023-04-25T09:48:25;21.40;1.00
9943;DHT22;5010;45.080;7.634;2023-04-25T09:51:06;21.40;1.00
9943;DHT22;5010;45.080;7.634;2023-04-25T09:53:34;21.40;1.00
9943;DHT22;5010;45.080;7.634;2023-04-25T09:56:03;21.40;1.00
9943;DHT22;5010;45.080;7.634;2023-04-25T09:58:32;21.40;1.00
9943;DHT22;5010;45.080;7.634;2023-04-25T10:01:00;21.40;1.00
9943;DHT22;5010;45.080;7.634;2023-04-25T10:03:30;21.40;1.00
9943;DHT22;5010;45.080;7.634;2023-04-25T10:05:59;21.40;1.00
9943;DHT22;5010;45.080;7.634;2023-04-25T10:08:32;21.40;1.00
9943;DHT22;5010;45.080;7.634;2023-04-25T10:11:00;21.40;1.00
9943;DHT22;5010;45.080;7.634;2023-04-25T10:13:29;21.40;1.00
9943;DHT22;5010;45.080;7.634;2023-04-25T10:15:57;21.40;1.00
9943;DHT22;5010;45.080;7.634;2023-04-25T10:18:25;21.40;1.00
9943;DHT22;5010;45.080;7.634;2023-04-25T10:20:53;21.40;1.00
9943;DHT22;5010;45.080;7.634;2023-04-25T10:23:21;21.40;1.00
9943;DHT22;5010;45.080;7.634;2023-04-25T10:25:50;21.40;1.00
9943;DHT22;5010;45.080;7.634;2023-04-25T10:28:17;21.40;1.00
9943;DHT22;5010;45.080;7.634;2023-04-25T10:30:58;21.40;1.00
9943;DHT22;5010;45.080;7.634;2023-04-25T10:33:35;21.40;1.00
9943;DHT22;5010;45.080;7.634;2023-04-25T10:36:11;21.40;1.00
9943;DHT22;5010;45.080;7.634;2023-04-25T10:38:38;21.40;1.00
9943;DHT22;5010;45.080;7.634;2023-04-25T10:41:08;21.40;1.00
9943;DHT22;5010;45.080;7.634;2023-04-25T10:43:39;21.40;1.00
9943;DHT22;5010;45.080;7.634;2023-04-25T10:46:13;21.40;1.00
9943;DHT22;5010;45.080;7.634;2023-04-25T10:48:48;21.40;1.00
9943;DHT22;5010;45.080;7.634;2023-04-25T10:51:17;21.40;1.00
9943;DHT22;5010;45.080;7.634;2023-04-25T10:53:45;21.40;1.00
9943;DHT22;5010;45.080;7.634;2023-04-25T10:56:17;21.40;1.00
9943;DHT22;5010;45.080;7.634;2023-04-25T10:58:45;21.40;1.00
9943;DHT22;5010;45.080;7.634;2023-04-25T11:01:13;21.40;1.00
9943;DHT22;5010;45.080;7.634;2023-04-25T11:03:41;21.40;1.00
9943;DHT22;5010;45.080;7.634;2023-04-25T11:06:16;21.40;1.00
9943;DHT22;5010;45.080;7.634;2023-04-25T11:08:48;21.40;1.00
9943;DHT22;5010;45.080;7.634;2023-04-25T11:11:18;21.50;1.00
9943;DHT22;5010;45.080;7.634;2023-04-25T11:13:48;21.50;1.00
9943;DHT22;5010;45.080;7.634;2023-04-25T11:16:15;21.50;1.00
9943;DHT22;5010;45.080;7.634;2023-04-25T11:18:42;21.40;1.00
9943;DHT22;5010;45.080;7.634;2023-04-25T11:21:10;21.50;1.00
9943;DHT22;5010;45.080;7.634;2023-04-25T11:23:37;21.50;1.00
9943;DHT22;5010;45.080;7.634;2023-04-25T11:26:04;21.50;1.00
9943;DHT22;5010;45.080;7.634;2023-04-25T11:28:32;21.50;1.00
9943;DHT22;5010;45.080;7.634;2023-04-25T11:30:59;21.50;1.00
9943;DHT22;5010;45.080;7.634;2023-04-25T11:33:26;21.50;1.00
9943;DHT22;5010;45.080;7.634;2023-04-25T11:35:54;21.50;1.00
9943;DHT22;5010;45.080;7.634;2023-04-25T11:38:22;21.50;1.00
9943;DHT22;5010;45.080;7.634;2023-04-25T11:40:52;21.50;1.00
9943;DHT22;5010;45.080;7.634;2023-04-25T11:43:20;21.50;1.00
9943;DHT22;5010;45.080;7.634;2023-04-25T11:45:50;21.50;1.00
9943;DHT22;5010;45.080;7.634;2023-04-25T11:48:17;21.50;1.00
9943;DHT22;5010;45.080;7.634;2023-04-25T11:50:44;21.50;1.00
9943;DHT22;5010;45.080;7.634;2023-04-25T11:53:12;21.50;1.00
9943;DHT22;5010;45.080;7.634;2023-04-25T11:55:39;21.50;1.00
9943;DHT22;5010;45.080;7.634;2023-04-25T11:58:06;21.50;1.00
9943;DHT22;5010;45.080;7.634;2023-04-25T12:00:35;21.50;1.00
9943;DHT22;5010;45.080;7.634;2023-04-25T12:03:03;21.60;1.00
9943;DHT22;5010;45.080;7.634;2023-04-25T12:05:31;21.50;1.00
9943;DHT22;5010;45.080;7.634;2023-04-25T12:08:09;21.60;1.00
9943;DHT22;5010;45.080;7.634;2023-04-25T12:10:38;21.60;1.00
9943;DHT22;5010;45.080;7.634;2023-04-25T12:13:19;21.60;1.00
9943;DHT22;5010;45.080;7.634;2023-04-25T12:15:46;21.60;1.00
9943;DHT22;5010;45.080;7.634;2023-04-25T12:18:18;21.60;1.00
9943;DHT22;5010;45.080;7.634;2023-04-25T12:20:45;21.60;1.00
9943;DHT22;5010;45.080;7.634;2023-04-25T12:23:12;21.60;1.00
9943;DHT22;5010;45.080;7.634;2023-04-25T12:25:40;21.60;1.00
9943;DHT22;5010;45.080;7.634;2023-04-25T12:28:12;21.60;1.00
9943;DHT22;5010;45.080;7.634;2023-04-25T12:30:58;21.60;1.00
9943;DHT22;5010;45.080;7.634;2023-04-25T12:33:27;21.60;1.00
9943;DHT22;5010;45.080;7.634;2023-04-25T12:35:54;21.60;1.00
9943;DHT22;5010;45.080;7.634;2023-04-25T12:38:23;21.60;1.00
9943;DHT22;5010;45.080;7.634;2023-04-25T12:40:50;21.60;1.00
9943;DHT22;5010;45.080;7.634;2023-04-25T12:43:17;21.60;1.00
9943;DHT22;5010;45.080;7.634;2023-04-25T12:45:44;21.60;1.00
9943;DHT22;5010;45.080;7.634;2023-04-25T12:48:13;21.60;1.00
9943;DHT22;5010;45.080;7.634;2023-04-25T12:50:42;21.60;1.00
9943;DHT22;5010;45.080;7.634;2023-04-25T12:53:09;21.60;1.00
9943;DHT22;5010;45.080;7.634;2023-04-25T12:55:37;21.60;1.00
9943;DHT22;5010;45.080;7.634;2023-04-25T12:58:04;21.60;1.00
9943;DHT22;5010;45.080;7.634;2023-04-25T13:00:31;21.70;1.00
9943;DHT22;5010;45.080;7.634;2023-04-25T13:02:58;21.60;1.00
9943;DHT22;5010;45.080;7.634;2023-04-25T13:05:25;21.70;1.00
9943;DHT22;5010;45.080;7.634;2023-04-25T13:07:54;21.70;1.00
9943;DHT22;5010;45.080;7.634;2023-04-25T13:10:21;21.70;1.00
9943;DHT22;5010;45.080;7.634;2023-04-25T13:12:48;21.70;1.00
9943;DHT22;5010;45.080;7.634;2023-04-25T13:15:15;21.70;1.00
9943;DHT22;5010;45.080;7.634;2023-04-25T13:17:42;21.70;1.00
9943;DHT22;5010;45.080;7.634;2023-04-25T13:20:09;21.70;1.00
9943;DHT22;5010;45.080;7.634;2023-04-25T13:22:37;21.70;1.00
9943;DHT22;5010;45.080;7.634;2023-04-25T13:25:07;21.80;1.00
9943;DHT22;5010;45.080;7.634;2023-04-25T13:27:35;21.80;1.00
9943;DHT22;5010;45.080;7.634;2023-04-25T13:30:04;21.80;1.00
9943;DHT22;5010;45.080;7.634;2023-04-25T13:32:33;21.80;1.00
9943;DHT22;5010;45.080;7.634;2023-04-25T13:35:01;21.80;1.00
9943;DHT22;5010;45.080;7.634;2023-04-25T13:37:29;21.70;1.00
9943;DHT22;5010;45.080;7.634;2023-04-25T13:39:58;21.80;1.00
9943;DHT22;5010;45.080;7.634;2023-04-25T13:42:27;21.80;1.00
9943;DHT22;5010;45.080;7.634;2023-04-25T13:44:54;21.80;1.00
9943;DHT22;5010;45.080;7.634;2023-04-25T13:47:20;21.80;1.00
9943;DHT22;5010;45.080;7.634;2023-04-25T13:49:48;21.80;1.00
9943;DHT22;5010;45.080;7.634;2023-04-25T13:52:15;21.70;1.00
9943;DHT22;5010;45.080;7.634;2023-04-25T13:54:42;21.80;1.00
9943;DHT22;5010;45.080;7.634;2023-04-25T13:57:09;21.80;1.00
9943;DHT22;5010;45.080;7.634;2023-04-25T13:59:38;21.80;1.00
9943;DHT22;5010;45.080;7.634;2023-04-25T14:02:06;21.70;1.00
9943;DHT22;5010;45.080;7.634;2023-04-25T14:04:33;21.70;1.00
9943;DHT22;5010;45.080;7.634;2023-04-25T14:07:00;21.80;1.00
9943;DHT22;5010;45.080;7.634;2023-04-25T14:09:27;21.70;1.00
9943;DHT22;5010;45.080;7.634;2023-04-25T14:11:55;21.70;1.00
9943;DHT22;5010;45.080;7.634;2023-04-25T14:14:22;21.80;1.00
9943;DHT22;5010;45.080;7.634;2023-04-25T14:16:51;21.80;1.00
9943;DHT22;5010;45.080;7.634;2023-04-25T14:19:19;21.70;1.00
9943;DHT22;5010;45.080;7.634;2023-04-25T14:21:46;21.70;1.00
9943;DHT22;5010;45.080;7.634;2023-04-25T14:24:13;21.70;1.00
9943;DHT22;5010;45.080;7.634;2023-04-25T14:26:41;21.80;1.00
9943;DHT22;5010;45.080;7.634;2023-04-25T14:29:08;21.70;1.00
9943;DHT22;5010;45.080;7.634;2023-04-25T14:31:37;21.80;1.00
9943;DHT22;5010;45.080;7.634;2023-04-25T14:34:06;21.70;1.00
9943;DHT22;5010;45.080;7.634;2023-04-25T14:36:35;21.70;1.00
9943;DHT22;5010;45.080;7.634;2023-04-25T14:39:02;21.80;1.00
9943;DHT22;5010;45.080;7.634;2023-04-25T14:41:30;21.70;1.00
9943;DHT22;5010;45.080;7.634;2023-04-25T14:43:57;21.70;1.00
9943;DHT22;5010;45.080;7.634;2023-04-25T14:46:24;21.80;1.00
9943;DHT22;5010;45.080;7.634;2023-04-25T14:48:51;21.80;1.00
9943;DHT22;5010;45.080;7.634;2023-04-25T14:51:20;21.80;1.00
9943;DHT22;5010;45.080;7.634;2023-04-25T14:53:46;21.70;1.00
9943;DHT22;5010;45.080;7.634;2023-04-25T14:56:13;21.80;1.00
9943;DHT22;5010;45.080;7.634;2023-04-25T14:58:40;21.80;1.00
9943;DHT22;5010;45.080;7.634;2023-04-25T15:01:07;21.80;1.00
9943;DHT22;5010;45.080;7.634;2023-04-25T15:03:34;21.80;1.00
9943;DHT22;5010;45.080;7.634;2023-04-25T15:06:01;21.80;1.00
9943;DHT22;5010;45.080;7.634;2023-04-25T15:08:29;21.80;1.00
9943;DHT22;5010;45.080;7.634;2023-04-25T15:10:56;21.80;1.00
9943;DHT22;5010;45.080;7.634;2023-04-25T15:13:23;21.80;1.00
9943;DHT22;5010;45.080;7.634;2023-04-25T15:15:51;21.80;1.00
9943;DHT22;5010;45.080;7.634;2023-04-25T15:18:20;21.80;1.00
9943;DHT22;5010;45.080;7.634;2023-04-25T15:20:48;21.80;1.00
9943;DHT22;5010;45.080;7.634;2023-04-25T15:23:15;21.80;1.00
9943;DHT22;5010;45.080;7.634;2023-04-25T15:25:44;21.70;1.00
9943;DHT22;5010;45.080;7.634;2023-04-25T15:28:11;21.80;1.00
9943;DHT22;5010;45.080;7.634;2023-04-25T15:30:39;21.70;1.00
9943;DHT22;5010;45.080;7.634;2023-04-25T15:33:06;21.70;1.00
9943;DHT22;5010;45.080;7.634;2023-04-25T15:35:33;21.70;1.00
9943;DHT22;5010;45.080;7.634;2023-04-25T15:38:00;21.70;1.00
9943;DHT22;5010;45.080;7.634;2023-04-25T15:40:27;21.70;1.00
9943;DHT22;5010;45.080;7.634;2023-04-25T15:42:55;21.70;1.00
9943;DHT22;5010;45.080;7.634;2023-04-25T15:45:23;21.70;1.00
9943;DHT22;5010;45.080;7.634;2023-04-25T15:47:51;21.70;1.00
9943;DHT22;5010;45.080;7.634;2023-04-25T15:50:19;21.70;1.00
9943;DHT22;5010;45.080;7.634;2023-04-25T15:52:47;21.70;1.00
9943;DHT22;5010;45.080;7.634;2023-04-25T15:55:14;21.70;1.00
9943;DHT22;5010;45.080;7.634;2023-04-25T15:57:42;21.70;1.00
9943;DHT22;5010;45.080;7.634;2023-04-25T16:00:11;21.70;1.00
9943;DHT22;5010;45.080;7.634;2023-04-25T16:02:40;21.70;1.00
9943;DHT22;5010;45.080;7.634;2023-04-25T16:05:07;21.70;1.00
9943;DHT22;5010;45.080;7.634;2023-04-25T16:07:35;21.70;1.00
9943;DHT22;5010;45.080;7.634;2023-04-25T16:10:02;21.70;1.00
9943;DHT22;5010;45.080;7.634;2023-04-25T16:12:29;21.70;1.00
9943;DHT22;5010;45.080;7.634;2023-04-25T16:14:56;21.70;1.00
9943;DHT22;5010;45.080;7.634;2023-04-25T16:17:25;21.70;1.00
9943;DHT22;5010;45.080;7.634;2023-04-25T16:19:54;21.60;1.00
9943;DHT22;5010;45.080;7.634;2023-04-25T16:22:21;21.70;1.00